Alexander 3 — SW6137 — position and weather

sailwx.info

Track history (hours):
 
Tides and Currents Weather Stations Pressure Air Temp Water Temp Dewpoint Dewpoint Depression Visibility Wind Speed Wind Dir Waves Ship Positions

Alexander 3

Last reported at 2014-Nov-25 11:33 UTC. Time now 2014-Nov-26 00:21 UTC.
Position N 37°56' E 023°38'.

Length 38 m; draft 5.6 m.

Type: Tug. MMSI: 240733000.

Date/timePositionNaut miles runAvg speedWind from/ knotsBaromVisibWave heightAir tempDewpointWater temp
2014-Nov-25 11:33N 37°56' E 023°38'1 0.7
2014-Nov-25 10:33N 37°56' E 023°37'1 0.9
2014-Nov-25 09:33N 37°56' E 023°36'3 3.4
2014-Nov-25 08:33N 37°58' E 023°33'6 5.6
2014-Nov-25 07:33N 37°58' E 023°26'2 1.8
2014-Nov-25 06:33N 37°57' E 023°24'6 6.2
2014-Nov-25 05:33N 37°52' E 023°29'7 6.7
2014-Nov-25 04:33N 37°57' E 023°35'1 0.8
2014-Nov-25 03:34N 37°57' E 023°36'0 0.0
2014-Nov-25 02:33N 37°57' E 023°36'0 0.0
2014-Nov-25 01:33N 37°57' E 023°36'0 0.0
2014-Nov-25 00:33N 37°57' E 023°36'0 0.0
2014-Nov-24 23:33N 37°57' E 023°36'0 0.0
2014-Nov-24 22:33N 37°57' E 023°36'0 0.0
2014-Nov-24 21:34N 37°57' E 023°36'0 0.2
2014-Nov-24 20:33N 37°57' E 023°36'6 5.6
2014-Nov-24 19:34N 37°53' E 023°31'7 7.3
2014-Nov-24 18:33N 37°57' E 023°23'1 1.4
2014-Nov-24 17:33N 37°58' E 023°24'0 0.0
2014-Nov-24 16:33N 37°58' E 023°24'0 0.0
2014-Nov-24 15:33N 37°58' E 023°24'0 0.0
2014-Nov-24 14:33N 37°58' E 023°24'0 0.0
2014-Nov-24 13:34N 37°58' E 023°24'0 0.0
2014-Nov-24 12:33N 37°58' E 023°24'0 0.0
2014-Nov-24 11:33N 37°58' E 023°24'0 0.0
2014-Nov-24 10:33N 37°58' E 023°24'0 0.0
2014-Nov-24 09:33N 37°58' E 023°24'0 0.0
2014-Nov-24 08:33N 37°58' E 023°24'0 0.0
2014-Nov-24 07:33N 37°58' E 023°24'0 0.0
2014-Nov-24 06:33N 37°58' E 023°24'0 0.0
2014-Nov-24 05:33N 37°58' E 023°24'0 0.0
2014-Nov-24 04:33N 37°58' E 023°24'0 0.0
2014-Nov-24 03:34N 37°58' E 023°24'0 0.0
2014-Nov-24 02:33N 37°58' E 023°24'0 0.0
2014-Nov-24 01:33N 37°58' E 023°24'0 0.0
2014-Nov-24 00:33N 37°58' E 023°24'0 0.0
2014-Nov-23 23:33N 37°58' E 023°24'0 0.0
2014-Nov-23 22:33N 37°58' E 023°24'0 0.0
2014-Nov-23 21:33N 37°58' E 023°24'0 0.0
2014-Nov-23 20:33N 37°58' E 023°24'0 0.0
2014-Nov-23 19:34N 37°58' E 023°24'0 0.0
2014-Nov-23 18:33N 37°58' E 023°24'0 0.0
2014-Nov-23 17:33N 37°58' E 023°24'0 0.0
2014-Nov-23 16:33N 37°58' E 023°24'0 0.0
2014-Nov-23 15:33N 37°58' E 023°24'0 0.0
2014-Nov-23 14:33N 37°58' E 023°24'0 0.0
2014-Nov-23 13:33N 37°58' E 023°24'0 0.0
2014-Nov-23 12:33N 37°58' E 023°24'0 0.0
2014-Nov-23 11:33N 37°58' E 023°24'0 0.0
2014-Nov-23 10:33N 37°58' E 023°24'0 0.0
2014-Nov-23 09:33N 37°58' E 023°24'1 1.2
2014-Nov-23 08:34N 37°58' E 023°23'1 0.7
2014-Nov-23 07:33N 37°58' E 023°23'4 3.9
2014-Nov-23 06:33N 38°00' E 023°27'7 7.0
2014-Nov-23 05:33N 37°57' E 023°35'2 1.9
2014-Nov-23 04:33N 37°56' E 023°37'0 0.0
2014-Nov-21 14:34N 37°56' E 023°37'4 4.0
2014-Nov-21 13:33N 37°53' E 023°34'4 3.8
2014-Nov-21 12:33N 37°51' E 023°30'7 7.0
2014-Nov-21 11:33N 37°51' E 023°22'7 6.9
2014-Nov-21 10:31N 37°52' E 023°13'8 6.9
2014-Nov-21 09:24N 37°54' E 023°03'14 0.3
2014-Nov-19 09:06N 37°53' E 023°21'5 8.9
2014-Nov-19 08:34N 37°52' E 023°27'9 9.0
2014-Nov-19 07:34N 37°56' E 023°37'0 0.2
2014-Nov-19 06:34N 37°56' E 023°37'2 2.0
2014-Nov-19 05:34N 37°57' E 023°35'0 0.4
2014-Nov-19 04:33N 37°57' E 023°36'1 0.8
2014-Nov-19 03:34N 37°57' E 023°37'0 0.0
2014-Nov-19 02:34N 37°57' E 023°37'0 0.0
2014-Nov-19 01:34N 37°57' E 023°37'0 0.0
2014-Nov-19 00:34N 37°57' E 023°37'0 0.0
2014-Nov-18 23:33N 37°57' E 023°37'0 0.0
2014-Nov-18 22:34N 37°57' E 023°37'0 0.4
2014-Nov-18 21:34N 37°57' E 023°36'1 1.3
2014-Nov-18 20:33N 37°56' E 023°36'1 0.6
2014-Nov-18 19:21N 37°56' E 023°37'0 0.0
2014-Nov-18 18:33N 37°56' E 023°37'0 0.0
2014-Nov-18 17:34N 37°56' E 023°37'0 0.0
2014-Nov-18 16:33N 37°56' E 023°37'0 0.0
2014-Nov-18 15:34N 37°56' E 023°37'0 0.0
2014-Nov-18 14:34N 37°56' E 023°37'0 0.0
2014-Nov-18 10:34N 37°56' E 023°37'0 0.0
2014-Nov-18 09:34N 37°56' E 023°37'0 0.0
2014-Nov-18 08:34N 37°56' E 023°37'0 0.0
2014-Nov-18 07:34N 37°56' E 023°37'1 1.1
2014-Nov-18 06:34N 37°56' E 023°36'1 0.9
2014-Nov-18 05:33N 37°57' E 023°35'1 1.3
2014-Nov-18 04:30N 37°56' E 023°37'1 0.1
2014-Nov-17 16:16N 37°56' E 023°37'1 2.1
2014-Nov-17 15:33N 37°57' E 023°37'0 0.0
2014-Nov-17 14:33N 37°57' E 023°37'0 0.0
2014-Nov-17 13:33N 37°57' E 023°37'0 0.0
2014-Nov-17 12:33N 37°57' E 023°37'0 0.1
2014-Nov-17 11:33N 37°58' E 023°36'0 0.3
2014-Nov-17 10:33N 37°57' E 023°36'6 6.4
2014-Nov-17 09:33N 38°02' E 023°31'0 0.2
2014-Nov-17 08:32N 38°02' E 023°31'6 6.3
2014-Nov-17 07:33N 37°57' E 023°36'0 0.0
2014-Nov-17 06:33N 37°57' E 023°36'0 0.0
2014-Nov-17 05:33N 37°57' E 023°36'1 0.8
2014-Nov-17 04:33N 37°57' E 023°35'2 1.9
2014-Nov-17 03:33N 37°56' E 023°37'0 0.0
2014-Nov-16 16:32N 37°56' E 023°37'1 1.3
2014-Nov-16 15:33N 37°57' E 023°36'1 0.9
2014-Nov-16 14:32N 37°57' E 023°37'0 0.0
2014-Nov-16 13:33N 37°57' E 023°37'0 0.0
2014-Nov-16 12:33N 37°57' E 023°37'1 1.1
2014-Nov-16 11:33N 37°57' E 023°35'1 1.1
2014-Nov-16 10:33N 37°57' E 023°37'0 0.0
2014-Nov-16 09:33N 37°57' E 023°37'0 0.0
2014-Nov-16 08:33N 37°57' E 023°37'2 1.6
2014-Nov-16 07:33N 37°57' E 023°35'2 1.6
2014-Nov-16 06:33N 37°57' E 023°37'1 0.5
2014-Nov-16 05:33N 37°57' E 023°36'2 1.7
2014-Nov-16 04:33N 37°56' E 023°37'0 0.0
2014-Nov-16 03:33N 37°56' E 023°37'0 0.0
2014-Nov-15 17:11N 37°56' E 023°37'4 7.0
2014-Nov-15 16:33N 37°59' E 023°33'3 3.3
2014-Nov-15 15:33N 38°01' E 023°35'2 1.6
2014-Nov-15 14:33N 38°00' E 023°34'3 3.0
2014-Nov-15 13:33N 37°57' E 023°33'3 2.6
2014-Nov-15 12:33N 37°57' E 023°37'0 0.0
2014-Nov-15 11:33N 37°57' E 023°37'  
Track history (hours):
 
Tides and Currents Weather Stations Pressure Air Temp Water Temp Dewpoint Dewpoint Depression Visibility Wind Speed Wind Dir Waves Ship Positions

Alexander 3

Last reported at 2014-Nov-25 11:33 UTC. Time now 2014-Nov-26 00:21 UTC.
Position N 37°56' E 023°38'.

Length 38 m; draft 5.6 m.

Type: Tug. MMSI: 240733000.

Date/timePositionNaut miles runAvg speedWind from/ knotsBaromVisibWave heightAir tempDewpointWater temp
2014-Nov-25 11:33N 37°56' E 023°38'1 0.7
2014-Nov-25 10:33N 37°56' E 023°37'1 0.9
2014-Nov-25 09:33N 37°56' E 023°36'3 3.4
2014-Nov-25 08:33N 37°58' E 023°33'6 5.6
2014-Nov-25 07:33N 37°58' E 023°26'2 1.8
2014-Nov-25 06:33N 37°57' E 023°24'6 6.2
2014-Nov-25 05:33N 37°52' E 023°29'7 6.7
2014-Nov-25 04:33N 37°57' E 023°35'1 0.8
2014-Nov-25 03:34N 37°57' E 023°36'0 0.0
2014-Nov-25 02:33N 37°57' E 023°36'0 0.0
2014-Nov-25 01:33N 37°57' E 023°36'0 0.0
2014-Nov-25 00:33N 37°57' E 023°36'0 0.0
2014-Nov-24 23:33N 37°57' E 023°36'0 0.0
2014-Nov-24 22:33N 37°57' E 023°36'0 0.0
2014-Nov-24 21:34N 37°57' E 023°36'0 0.2
2014-Nov-24 20:33N 37°57' E 023°36'6 5.6
2014-Nov-24 19:34N 37°53' E 023°31'7 7.3
2014-Nov-24 18:33N 37°57' E 023°23'1 1.4
2014-Nov-24 17:33N 37°58' E 023°24'0 0.0
2014-Nov-24 16:33N 37°58' E 023°24'0 0.0
2014-Nov-24 15:33N 37°58' E 023°24'0 0.0
2014-Nov-24 14:33N 37°58' E 023°24'0 0.0
2014-Nov-24 13:34N 37°58' E 023°24'0 0.0
2014-Nov-24 12:33N 37°58' E 023°24'0 0.0
2014-Nov-24 11:33N 37°58' E 023°24'0 0.0
2014-Nov-24 10:33N 37°58' E 023°24'0 0.0
2014-Nov-24 09:33N 37°58' E 023°24'0 0.0
2014-Nov-24 08:33N 37°58' E 023°24'0 0.0
2014-Nov-24 07:33N 37°58' E 023°24'0 0.0
2014-Nov-24 06:33N 37°58' E 023°24'0 0.0
2014-Nov-24 05:33N 37°58' E 023°24'0 0.0
2014-Nov-24 04:33N 37°58' E 023°24'0 0.0
2014-Nov-24 03:34N 37°58' E 023°24'0 0.0
2014-Nov-24 02:33N 37°58' E 023°24'0 0.0
2014-Nov-24 01:33N 37°58' E 023°24'0 0.0
2014-Nov-24 00:33N 37°58' E 023°24'0 0.0
2014-Nov-23 23:33N 37°58' E 023°24'0 0.0
2014-Nov-23 22:33N 37°58' E 023°24'0 0.0
2014-Nov-23 21:33N 37°58' E 023°24'0 0.0
2014-Nov-23 20:33N 37°58' E 023°24'0 0.0
2014-Nov-23 19:34N 37°58' E 023°24'0 0.0
2014-Nov-23 18:33N 37°58' E 023°24'0 0.0
2014-Nov-23 17:33N 37°58' E 023°24'0 0.0
2014-Nov-23 16:33N 37°58' E 023°24'0 0.0
2014-Nov-23 15:33N 37°58' E 023°24'0 0.0
2014-Nov-23 14:33N 37°58' E 023°24'0 0.0
2014-Nov-23 13:33N 37°58' E 023°24'0 0.0
2014-Nov-23 12:33N 37°58' E 023°24'0 0.0
2014-Nov-23 11:33N 37°58' E 023°24'0 0.0
2014-Nov-23 10:33N 37°58' E 023°24'0 0.0
2014-Nov-23 09:33N 37°58' E 023°24'1 1.2
2014-Nov-23 08:34N 37°58' E 023°23'1 0.7
2014-Nov-23 07:33N 37°58' E 023°23'4 3.9
2014-Nov-23 06:33N 38°00' E 023°27'7 7.0
2014-Nov-23 05:33N 37°57' E 023°35'2 1.9
2014-Nov-23 04:33N 37°56' E 023°37'0 0.0
2014-Nov-21 14:34N 37°56' E 023°37'4 4.0
2014-Nov-21 13:33N 37°53' E 023°34'4 3.8
2014-Nov-21 12:33N 37°51' E 023°30'7 7.0
2014-Nov-21 11:33N 37°51' E 023°22'7 6.9
2014-Nov-21 10:31N 37°52' E 023°13'8 6.9
2014-Nov-21 09:24N 37°54' E 023°03'14 0.3
2014-Nov-19 09:06N 37°53' E 023°21'5 8.9
2014-Nov-19 08:34N 37°52' E 023°27'9 9.0
2014-Nov-19 07:34N 37°56' E 023°37'0 0.2
2014-Nov-19 06:34N 37°56' E 023°37'2 2.0
2014-Nov-19 05:34N 37°57' E 023°35'0 0.4
2014-Nov-19 04:33N 37°57' E 023°36'1 0.8
2014-Nov-19 03:34N 37°57' E 023°37'0 0.0
2014-Nov-19 02:34N 37°57' E 023°37'0 0.0
2014-Nov-19 01:34N 37°57' E 023°37'0 0.0
2014-Nov-19 00:34N 37°57' E 023°37'0 0.0
2014-Nov-18 23:33N 37°57' E 023°37'0 0.0
2014-Nov-18 22:34N 37°57' E 023°37'0 0.4
2014-Nov-18 21:34N 37°57' E 023°36'1 1.3
2014-Nov-18 20:33N 37°56' E 023°36'1 0.6
2014-Nov-18 19:21N 37°56' E 023°37'0 0.0
2014-Nov-18 18:33N 37°56' E 023°37'0 0.0
2014-Nov-18 17:34N 37°56' E 023°37'0 0.0
2014-Nov-18 16:33N 37°56' E 023°37'0 0.0
2014-Nov-18 15:34N 37°56' E 023°37'0 0.0
2014-Nov-18 14:34N 37°56' E 023°37'0 0.0
2014-Nov-18 10:34N 37°56' E 023°37'0 0.0
2014-Nov-18 09:34N 37°56' E 023°37'0 0.0
2014-Nov-18 08:34N 37°56' E 023°37'0 0.0
2014-Nov-18 07:34N 37°56' E 023°37'1 1.1
2014-Nov-18 06:34N 37°56' E 023°36'1 0.9
2014-Nov-18 05:33N 37°57' E 023°35'1 1.3
2014-Nov-18 04:30N 37°56' E 023°37'1 0.1
2014-Nov-17 16:16N 37°56' E 023°37'1 2.1
2014-Nov-17 15:33N 37°57' E 023°37'0 0.0
2014-Nov-17 14:33N 37°57' E 023°37'0 0.0
2014-Nov-17 13:33N 37°57' E 023°37'0 0.0
2014-Nov-17 12:33N 37°57' E 023°37'0 0.1
2014-Nov-17 11:33N 37°58' E 023°36'0 0.3
2014-Nov-17 10:33N 37°57' E 023°36'6 6.4
2014-Nov-17 09:33N 38°02' E 023°31'0 0.2
2014-Nov-17 08:32N 38°02' E 023°31'6 6.3
2014-Nov-17 07:33N 37°57' E 023°36'0 0.0
2014-Nov-17 06:33N 37°57' E 023°36'0 0.0
2014-Nov-17 05:33N 37°57' E 023°36'1 0.8
2014-Nov-17 04:33N 37°57' E 023°35'2 1.9
2014-Nov-17 03:33N 37°56' E 023°37'0 0.0
2014-Nov-16 16:32N 37°56' E 023°37'1 1.3
2014-Nov-16 15:33N 37°57' E 023°36'1 0.9
2014-Nov-16 14:32N 37°57' E 023°37'0 0.0
2014-Nov-16 13:33N 37°57' E 023°37'0 0.0
2014-Nov-16 12:33N 37°57' E 023°37'1 1.1
2014-Nov-16 11:33N 37°57' E 023°35'1 1.1
2014-Nov-16 10:33N 37°57' E 023°37'0 0.0
2014-Nov-16 09:33N 37°57' E 023°37'0 0.0
2014-Nov-16 08:33N 37°57' E 023°37'2 1.6
2014-Nov-16 07:33N 37°57' E 023°35'2 1.6
2014-Nov-16 06:33N 37°57' E 023°37'1 0.5
2014-Nov-16 05:33N 37°57' E 023°36'2 1.7
2014-Nov-16 04:33N 37°56' E 023°37'0 0.0
2014-Nov-16 03:33N 37°56' E 023°37'0 0.0
2014-Nov-15 17:11N 37°56' E 023°37'4 7.0
2014-Nov-15 16:33N 37°59' E 023°33'3 3.3
2014-Nov-15 15:33N 38°01' E 023°35'2 1.6
2014-Nov-15 14:33N 38°00' E 023°34'3 3.0
2014-Nov-15 13:33N 37°57' E 023°33'3 2.6
2014-Nov-15 12:33N 37°57' E 023°37'0 0.0
2014-Nov-15 11:33N 37°57' E 023°37'  

Dump ship's entire track history